Willsboro, New York
Current Conditions -  °F | °C
As of 6:54 AM on Thursday 23 Oct 2014 (Local Time) from KBTV Reporting Station
Broken Clouds Broken Clouds  
Wind Chill:   Ceiling: 3200
Heat Index:   Visibility: 10mi
Dew Point:   Wind: 15mph
Humidity: 73%   Direction: 350°N
Pressure: 30"   Gusts: NA
Location:  44.36°N, 73.39°W
Report Text: KBTV 231054Z 35013KT 10SM BKN032 07/02 A3000 RMK AO2 SLP160 T00670022
Loading
Personal Weather Stations






























Interactive Weather Map
Tropical Storm Tracking
New forecast layout! Learn more

10-Day Weather Forecast

Advertisements
Track Severe Weather on mobile